Time;durP1;ratioP1;P1;durP2;ratioP2;P2;SDS_P1;SDS_P2;PMS_P1;PMS_P2;Temp;Humidity;BMP_temperature;BMP_pressure;BME280_temperature;BME280_humidity;BME280_pressure;Samples;Min_cycle;Max_cycle;Signal;HPM_P1;HPM_P2
2022/06/14 00:00:57;;;;;;;6.20;2.67;;;10.50;99.90;;;;;;5050258;28;20124;-65
2022/06/14 00:03:39;;;;;;;6.38;1.70;;;10.40;99.90;;;;;;5049712;28;20044;-64
2022/06/14 00:06:09;;;;;;;6.00;2.03;;;10.40;99.90;;;;;;5049069;28;20651;-66
2022/06/14 00:08:35;;;;;;;6.18;1.88;;;10.40;99.90;;;;;;5049349;28;20033;-65
2022/06/14 00:11:09;;;;;;;5.97;2.03;;;10.40;99.90;;;;;;5032262;28;20033;-64
2022/06/14 00:13:34;;;;;;;7.28;2.00;;;10.30;99.90;;;;;;5051610;28;20041;-64
2022/06/14 00:16:00;;;;;;;5.55;2.50;;;10.30;99.90;;;;;;5054347;28;20021;-64
2022/06/14 00:18:26;;;;;;;6.68;2.13;;;10.30;99.90;;;;;;5054114;28;20079;-64
2022/06/14 00:20:52;;;;;;;7.70;3.05;;;10.30;99.90;;;;;;5054520;28;20049;-64
2022/06/14 00:23:18;;;;;;;12.20;2.80;;;10.20;99.90;;;;;;5053878;28;20666;-65
2022/06/14 00:25:47;;;;;;;8.95;2.78;;;10.20;99.90;;;;;;5054181;28;20391;-65
2022/06/14 00:28:15;;;;;;;4.35;2.33;;;10.20;99.90;;;;;;5052681;28;20093;-64
2022/06/14 00:30:43;;;;;;;7.18;2.65;;;10.20;99.90;;;;;;5053971;28;20139;-66
2022/06/14 00:33:09;;;;;;;6.50;2.40;;;10.20;99.90;;;;;;5054016;28;20084;-63
2022/06/14 00:35:35;;;;;;;6.40;2.35;;;10.10;99.90;;;;;;5053727;28;20041;-64
2022/06/14 00:38:01;;;;;;;5.20;2.25;;;10.10;99.90;;;;;;5052615;28;20501;-64
2022/06/14 00:40:31;;;;;;;4.78;1.80;;;10.10;99.90;;;;;;5053679;28;20044;-65
2022/06/14 00:42:57;;;;;;;6.60;2.60;;;10.00;99.90;;;;;;5053765;28;20043;-63
2022/06/14 00:45:26;;;;;;;6.85;2.35;;;10.10;99.90;;;;;;5053693;28;20410;-64
2022/06/14 00:47:59;;;;;;;4.50;2.25;;;10.00;99.90;;;;;;5053527;28;20037;-64
2022/06/14 00:50:31;;;;;;;5.68;2.75;;;10.00;99.90;;;;;;5053398;28;20041;-65
2022/06/14 00:53:04;;;;;;;;;;;10.00;99.90;;;;;;5053995;28;20439;-62
2022/06/14 00:55:46;;;;;;;7.22;2.65;;;9.90;99.90;;;;;;5052170;28;19920;-66
2022/06/14 00:58:27;;;;;;;5.95;2.45;;;9.90;99.90;;;;;;5052122;28;20106;-64
2022/06/14 01:01:10;;;;;;;7.57;2.65;;;9.90;99.90;;;;;;5053252;28;20029;-63
2022/06/14 01:03:45;;;;;;;5.18;2.50;;;9.80;99.90;;;;;;5052156;28;20395;-64
2022/06/14 01:06:24;;;;;;;6.15;2.45;;;9.80;99.90;;;;;;5053167;28;20053;-64
2022/06/14 01:08:57;;;;;;;7.18;2.70;;;9.80;99.90;;;;;;5051959;28;20037;-64
2022/06/14 01:11:44;;;;;;;5.65;2.20;;;9.80;99.90;;;;;;5051897;28;20041;-64
2022/06/14 01:14:13;;;;;;;6.55;2.70;;;9.70;99.90;;;;;;5051756;28;20413;-63
2022/06/14 01:16:39;;;;;;;7.18;2.42;;;9.70;99.90;;;;;;5051700;28;20128;-63
2022/06/14 01:19:11;;;;;;;4.70;2.72;;;9.70;99.90;;;;;;5052174;28;20120;-65
2022/06/14 01:21:36;;;;;;;4.57;2.45;;;9.70;99.90;;;;;;5052756;28;20045;-64
2022/06/14 01:24:02;;;;;;;4.90;2.65;;;9.70;99.90;;;;;;5052526;28;20383;-64
2022/06/14 01:26:30;;;;;;;5.32;2.60;;;9.60;99.90;;;;;;5053061;28;20055;-64
2022/06/14 01:29:00;;;;;;;5.28;2.70;;;9.60;99.90;;;;;;5048627;28;20036;-63
2022/06/14 01:31:29;;;;;;;3.75;2.33;;;9.60;99.90;;;;;;5050157;28;20049;-63
2022/06/14 01:34:00;;;;;;;6.43;3.35;;;9.50;99.90;;;;;;5052815;28;20480;-64
2022/06/14 01:36:31;;;;;;;5.03;2.80;;;9.50;99.90;;;;;;5050953;28;20120;-64
2022/06/14 01:39:01;;;;;;;6.73;3.03;;;9.50;99.90;;;;;;5052696;28;20079;-64
2022/06/14 01:41:36;;;;;;;6.00;3.25;;;9.50;99.90;;;;;;5051035;28;20041;-63
2022/06/14 01:44:24;;;;;;;8.48;3.53;;;9.50;99.90;;;;;;5050968;28;20045;-62
2022/06/14 01:47:21;;;;;;;7.07;3.63;;;9.50;99.90;;;;;;5051862;28;20091;-64
2022/06/14 01:52:55;;;;;;;6.45;3.30;;;9.50;99.90;;;;;;5052265;28;20116;-64
2022/06/14 01:55:39;;;;;;;4.90;2.88;;;9.40;99.90;;;;;;5050666;28;20045;-65
2022/06/14 01:58:08;;;;;;;7.25;3.13;;;9.40;99.90;;;;;;5052665;28;20040;-64
2022/06/14 02:00:53;;;;;;;6.95;3.30;;;9.40;99.90;;;;;;5049582;28;20037;-63
2022/06/14 02:06:22;;;;;;;7.95;3.63;;;9.40;99.90;;;;;;5051970;28;20093;-64
2022/06/14 02:08:57;;;;;;;7.38;3.65;;;9.40;99.90;;;;;;5050941;28;20128;-64
2022/06/14 02:11:32;;;;;;;6.95;4.00;;;9.40;99.90;;;;;;5052184;28;20076;-64
2022/06/14 02:14:17;;;;;;;5.05;3.60;;;9.40;99.90;;;;;;5052126;28;20125;-63
2022/06/14 02:17:00;;;;;;;6.75;3.53;;;9.40;99.90;;;;;;5051830;28;20079;-65
2022/06/14 02:19:34;;;;;;;6.80;3.95;;;9.40;99.90;;;;;;5051860;28;20048;-64
2022/06/14 02:22:12;;;;;;;6.60;3.45;;;9.30;99.90;;;;;;5050330;28;20092;-65
2022/06/14 02:24:51;;;;;;;7.63;3.70;;;9.40;99.90;;;;;;5051914;28;20032;-63
2022/06/14 02:27:31;;;;;;;8.77;4.03;;;9.40;99.90;;;;;;5051764;28;20104;-64
2022/06/14 02:30:03;;;;;;;9.40;4.85;;;9.30;99.90;;;;;;5050347;28;20033;-64
2022/06/14 02:32:38;;;;;;;7.78;3.67;;;9.30;99.90;;;;;;5051592;28;20041;-64
2022/06/14 02:35:14;;;;;;;8.43;3.67;;;9.40;99.90;;;;;;5050895;28;20380;-65
2022/06/14 02:38:01;;;;;;;5.45;3.78;;;9.30;99.90;;;;;;5051944;28;20045;-63
2022/06/14 02:40:35;;;;;;;7.28;3.85;;;9.30;99.90;;;;;;5050213;28;20442;-65
2022/06/14 02:43:22;;;;;;;9.68;4.95;;;9.30;99.90;;;;;;5050317;28;20048;-64
2022/06/14 02:45:51;;;;;;;8.15;4.13;;;9.30;99.90;;;;;;5049571;28;20049;-64
2022/06/14 02:48:42;;;;;;;6.82;3.83;;;9.20;99.90;;;;;;5050042;28;20082;-65
2022/06/14 02:51:20;;;;;;;6.75;4.20;;;9.20;99.90;;;;;;5050148;28;20444;-64
2022/06/14 02:53:58;;;;;;;5.32;3.55;;;9.20;99.90;;;;;;5050299;28;20484;-64
2022/06/14 02:56:32;;;;;;;8.80;4.25;;;9.20;99.90;;;;;;5051316;28;20128;-64
2022/06/14 02:59:03;;;;;;;8.52;4.32;;;9.20;99.90;;;;;;5049829;28;20041;-64
2022/06/14 03:01:46;;;;;;;5.38;3.75;;;9.20;99.90;;;;;;5049906;28;20055;-63
2022/06/14 03:04:34;;;;;;;8.13;4.00;;;9.20;99.90;;;;;;5050058;28;20052;-65
2022/06/14 03:07:24;;;;;;;6.20;3.80;;;9.20;99.90;;;;;;5049512;28;20044;-64
2022/06/14 03:09:50;;;;;;;7.00;3.83;;;9.10;99.90;;;;;;5050991;28;20114;-64
2022/06/14 03:12:34;;;;;;;6.00;3.88;;;9.10;99.90;;;;;;5049710;28;20036;-64
2022/06/14 03:15:35;;;;;;;7.25;3.78;;;9.10;99.90;;;;;;5049661;28;20045;-63
2022/06/14 03:18:25;;;;;;;5.53;3.65;;;9.20;99.90;;;;;;5050746;28;20098;-63
2022/06/14 03:21:12;;;;;;;6.35;3.50;;;9.10;99.90;;;;;;5046474;28;20055;-63
2022/06/14 03:23:46;;;;;;;5.13;3.55;;;9.20;99.90;;;;;;5048690;28;20365;-64
2022/06/14 03:26:36;;;;;;;7.03;3.45;;;9.10;99.90;;;;;;5048887;28;20043;-65
2022/06/14 03:29:14;;;;;;;6.72;3.40;;;9.10;99.90;;;;;;5048902;28;20037;-63
2022/06/14 03:31:57;;;;;;;5.68;3.30;;;9.20;99.90;;;;;;5049182;28;20394;-64
2022/06/14 03:34:40;;;;;;;5.18;3.03;;;9.20;99.90;;;;;;5049022;28;20037;-64
2022/06/14 03:37:07;;;;;;;8.82;3.78;;;9.20;99.90;;;;;;5046590;28;20083;-65
2022/06/14 03:39:37;;;;;;;9.50;3.05;;;9.20;99.90;;;;;;5050164;28;20407;-63
2022/06/14 03:42:04;;;;;;;5.95;3.28;;;9.30;99.90;;;;;;5048763;28;20056;-64
2022/06/14 03:44:32;;;;;;;6.15;3.28;;;9.30;99.90;;;;;;5048959;28;20041;-63
2022/06/14 03:47:19;;;;;;;6.75;3.42;;;9.30;99.90;;;;;;5049822;28;20120;-65
2022/06/14 03:49:53;;;;;;;5.80;3.03;;;9.30;99.90;;;;;;5050008;28;20064;-64
2022/06/14 03:52:33;;;;;;;3.80;2.63;;;9.30;99.90;;;;;;5048973;28;20037;-64
2022/06/14 03:55:25;;;;;;;8.30;3.15;;;9.40;99.90;;;;;;5050357;28;20512;-64
2022/06/14 03:57:50;;;;;;;5.28;2.95;;;9.40;99.90;;;;;;5050327;28;20049;-65
2022/06/14 04:00:22;;;;;;;5.57;2.85;;;9.40;99.90;;;;;;5050556;28;20047;-64
2022/06/14 04:03:00;;;;;;;5.53;3.40;;;9.50;99.90;;;;;;5049053;28;20044;-63
2022/06/14 04:05:31;;;;;;;8.00;3.78;;;9.50;99.90;;;;;;5050160;28;20136;-65
2022/06/14 04:08:28;;;;;;;6.13;3.35;;;9.50;99.90;;;;;;5048790;28;20049;-64
2022/06/14 04:11:12;;;;;;;9.90;4.30;;;9.60;99.90;;;;;;5048966;28;20045;-64
2022/06/14 04:13:49;;;;;;;9.25;3.40;;;9.60;99.90;;;;;;5050373;28;20083;-64
2022/06/14 04:16:31;;;;;;;6.10;3.45;;;9.60;99.90;;;;;;5050391;28;20047;-65
2022/06/14 04:19:54;;;;;;;6.03;3.33;;;9.70;99.90;;;;;;5050146;28;20107;-65
2022/06/14 04:22:30;;;;;;;7.05;3.10;;;9.70;99.90;;;;;;5011299;28;20080;-63
2022/06/14 04:25:14;;;;;;;9.40;3.28;;;9.70;99.90;;;;;;5010949;28;20045;-64
2022/06/14 04:27:40;;;;;;;6.07;3.30;;;9.80;99.90;;;;;;5027870;28;20053;-63
2022/06/14 04:30:28;;;;;;;8.68;3.42;;;9.80;99.90;;;;;;5011419;28;20502;-63
2022/06/14 04:33:15;;;;;;;6.18;3.20;;;9.90;99.90;;;;;;5011262;28;20561;-65
2022/06/14 04:35:58;;;;;;;6.25;3.13;;;9.90;99.90;;;;;;5027897;28;20042;-64
2022/06/14 04:38:31;;;;;;;7.22;3.47;;;9.90;99.90;;;;;;5011395;28;20585;-63
2022/06/14 04:41:21;;;;;;;7.93;3.25;;;10.00;99.90;;;;;;5027623;28;20107;-63
2022/06/14 04:44:00;;;;;;;8.27;3.72;;;10.10;99.90;;;;;;5027863;28;20116;-65
2022/06/14 04:46:44;;;;;;;7.15;3.40;;;10.20;99.90;;;;;;5027587;28;20610;-63
2022/06/14 04:49:21;;;;;;;6.57;3.60;;;10.30;99.90;;;;;;5011275;28;20413;-62
2022/06/14 04:51:53;;;;;;;6.32;3.45;;;10.30;99.90;;;;;;5027802;28;20049;-64
2022/06/14 04:54:27;;;;;;;8.65;3.75;;;10.40;99.90;;;;;;5049904;28;20052;-63
2022/06/14 04:57:17;;;;;;;8.95;3.38;;;10.50;99.90;;;;;;5050094;28;20036;-65
2022/06/14 04:59:49;;;;;;;6.93;3.42;;;10.60;99.90;;;;;;5051208;28;20041;-64
2022/06/14 05:02:19;;;;;;;7.03;3.63;;;10.70;99.90;;;;;;5053682;28;20047;-63
2022/06/14 05:04:51;;;;;;;8.38;3.55;;;10.80;99.90;;;;;;5053302;28;20045;-64
2022/06/14 05:07:31;;;;;;;7.13;3.35;;;10.90;99.90;;;;;;5053460;28;20135;-64
2022/06/14 05:10:15;;;;;;;9.40;3.63;;;11.00;99.90;;;;;;5052166;28;20491;-64
2022/06/14 05:13:02;;;;;;;7.97;3.10;;;11.10;99.90;;;;;;5049882;28;20502;-64
2022/06/14 05:15:36;;;;;;;9.45;3.80;;;11.20;99.90;;;;;;5052871;28;20411;-64
2022/06/14 05:18:12;;;;;;;7.07;3.38;;;11.30;99.90;;;;;;5052946;28;20086;-64
2022/06/14 05:20:44;;;;;;;10.30;3.35;;;11.40;99.90;;;;;;5052523;28;20037;-65
2022/06/14 05:23:34;;;;;;;10.25;4.00;;;11.60;99.90;;;;;;5051747;28;20122;-63
2022/06/14 05:26:12;;;;;;;9.63;3.35;;;11.70;99.90;;;;;;5052941;28;20075;-63
2022/06/14 05:29:00;;;;;;;10.57;3.45;;;11.80;99.90;;;;;;5050918;28;20049;-64
2022/06/14 05:31:43;;;;;;;8.93;3.33;;;11.90;99.90;;;;;;5049627;28;20040;-63
2022/06/14 05:34:23;;;;;;;11.15;3.38;;;12.10;99.90;;;;;;5051180;28;20133;-63
2022/06/14 05:37:12;;;;;;;8.43;3.53;;;12.20;99.90;;;;;;5052671;28;20463;-64
2022/06/14 05:39:48;;;;;;;11.50;3.50;;;12.40;99.90;;;;;;5052336;28;20124;-63
2022/06/14 05:42:21;;;;;;;9.23;3.13;;;12.50;99.90;;;;;;5050594;28;20041;-64
2022/06/14 05:44:51;;;;;;;8.32;3.20;;;12.60;99.90;;;;;;5052664;28;20045;-65
2022/06/14 05:47:24;;;;;;;10.10;3.13;;;12.70;99.90;;;;;;5033906;28;20059;-64
2022/06/14 05:49:54;;;;;;;10.10;2.65;;;12.80;99.90;;;;;;5051263;28;20388;-64
2022/06/14 05:52:38;;;;;;;9.10;3.00;;;12.90;99.90;;;;;;5051236;28;20045;-64
2022/06/14 05:55:42;;;;;;;12.23;3.10;;;13.00;99.90;;;;;;5052583;28;20068;-64
2022/06/14 05:58:21;;;;;;;6.88;2.72;;;13.10;99.90;;;;;;5052382;28;20399;-64
2022/06/14 06:00:52;;;;;;;7.63;2.80;;;13.30;99.90;;;;;;5052157;28;20041;-64
2022/06/14 06:03:48;;;;;;;11.88;3.28;;;13.30;99.90;;;;;;5051147;28;20131;-64
2022/06/14 06:06:40;;;;;;;8.15;2.75;;;13.40;99.90;;;;;;5050583;28;20055;-64
2022/06/14 06:09:33;;;;;;;8.38;2.58;;;13.50;99.90;;;;;;5050946;28;20399;-63
2022/06/14 06:12:14;;;;;;;7.85;2.90;;;13.60;99.90;;;;;;5052374;28;20476;-64
2022/06/14 06:14:49;;;;;;;6.53;2.40;;;13.80;99.90;;;;;;5052041;28;20068;-64
2022/06/14 06:17:27;;;;;;;5.85;2.90;;;13.90;99.90;;;;;;5051980;28;20048;-65
2022/06/14 06:20:09;;;;;;;9.60;3.38;;;14.00;99.90;;;;;;5051860;28;20495;-64
2022/06/14 06:22:50;;;;;;;7.65;2.95;;;14.10;99.90;;;;;;5052321;28;20028;-65
2022/06/14 06:25:23;;;;;;;8.02;2.83;;;14.20;99.90;;;;;;5050517;28;20041;-63
2022/06/14 06:28:07;;;;;;;7.43;3.05;;;14.30;99.90;;;;;;5051716;28;20033;-65
2022/06/14 06:30:49;;;;;;;9.38;3.15;;;14.40;99.90;;;;;;5050499;28;20052;-65
2022/06/14 06:33:17;;;;;;;8.47;2.50;;;14.50;99.90;;;;;;5051817;28;20043;-64
2022/06/14 06:36:22;;;;;;;9.55;2.70;;;14.70;99.90;;;;;;5051631;28;20788;-64
2022/06/14 06:39:08;;;;;;;7.63;2.90;;;14.90;99.90;;;;;;5050515;28;20033;-64
2022/06/14 06:41:51;;;;;;;7.90;2.60;;;15.00;99.90;;;;;;5051668;28;20035;-64
2022/06/14 06:44:34;;;;;;;5.80;2.70;;;15.10;99.90;;;;;;5051525;28;20120;-63
2022/06/14 06:47:11;;;;;;;8.52;2.65;;;15.30;99.90;;;;;;5051236;28;20110;-65
2022/06/14 06:50:03;;;;;;;7.15;2.53;;;15.50;99.90;;;;;;5051545;28;20110;-64
2022/06/14 06:52:40;;;;;;;8.90;3.03;;;15.60;99.90;;;;;;5048081;28;20049;-65
2022/06/14 06:55:36;;;;;;;8.45;2.78;;;15.70;99.90;;;;;;5050983;28;20040;-64
2022/06/14 06:58:08;;;;;;;8.32;2.05;;;16.00;99.90;;;;;;5048593;28;20045;-63
2022/06/14 07:00:37;;;;;;;6.85;2.15;;;16.00;99.90;;;;;;5050041;28;20053;-64
2022/06/14 07:03:39;;;;;;;7.88;2.20;;;16.10;99.90;;;;;;5047906;28;20037;-65
2022/06/14 07:06:11;;;;;;;5.93;1.92;;;16.20;99.90;;;;;;5028316;28;20411;-64
2022/06/14 07:08:52;;;;;;;5.85;1.70;;;16.30;99.90;;;;;;5028220;28;20535;-65
2022/06/14 07:11:22;;;;;;;6.43;1.90;;;16.30;99.90;;;;;;5011799;28;20107;-64
2022/06/14 07:14:07;;;;;;;5.20;1.85;;;16.40;99.90;;;;;;5027971;28;20073;-64
2022/06/14 07:16:44;;;;;;;8.52;2.17;;;16.60;99.90;;;;;;5011845;28;20057;-63
2022/06/14 07:19:15;;;;;;;7.95;2.88;;;16.70;99.90;;;;;;5028133;28;20049;-64
2022/06/14 07:21:47;;;;;;;6.47;1.67;;;16.90;99.90;;;;;;5027623;28;20579;-64
2022/06/14 07:24:19;;;;;;;4.97;1.80;;;16.90;99.90;;;;;;5028118;28;20065;-65
2022/06/14 07:26:52;;;;;;;7.55;2.30;;;17.10;99.90;;;;;;5011570;28;20046;-65
2022/06/14 07:29:30;;;;;;;7.90;2.17;;;16.90;99.90;;;;;;5028249;28;20045;-64
2022/06/14 07:32:17;;;;;;;8.52;2.10;;;16.90;99.90;;;;;;5028134;28;20029;-64
2022/06/14 07:34:44;;;;;;;5.50;1.70;;;16.70;99.90;;;;;;5027652;28;20038;-63
2022/06/14 07:37:25;;;;;;;5.53;1.42;;;16.80;99.90;;;;;;5028190;28;20051;-65
2022/06/14 07:40:19;;;;;;;5.40;1.40;;;16.60;99.90;;;;;;5028260;28;20042;-65
2022/06/14 07:43:12;;;;;;;6.00;2.03;;;16.50;99.90;;;;;;5004544;28;20053;-66
2022/06/14 07:45:41;;;;;;;3.47;1.23;;;16.40;99.90;;;;;;4994917;28;20057;-65
2022/06/14 07:48:18;;;;;;;5.95;1.30;;;16.30;99.90;;;;;;5010712;28;20127;-65
2022/06/14 07:50:53;;;;;;;6.30;1.20;;;16.00;99.90;;;;;;5010895;28;20049;-64
2022/06/14 07:53:23;;;;;;;3.80;1.20;;;16.30;99.90;;;;;;5027246;28;20068;-65
2022/06/14 07:55:53;;;;;;;4.68;1.30;;;16.70;99.90;;;;;;5027377;28;20037;-65
2022/06/14 07:58:47;;;;;;;6.03;1.50;;;17.10;99.90;;;;;;5010858;28;20642;-64
2022/06/14 08:01:19;;;;;;;5.63;1.10;;;17.30;99.90;;;;;;5010625;28;20046;-64
2022/06/14 08:04:03;;;;;;;5.30;1.40;;;17.20;99.90;;;;;;5027267;28;20150;-64
2022/06/14 08:06:35;;;;;;;4.10;1.00;;;17.00;99.90;;;;;;5026814;28;20041;-65
2022/06/14 08:09:03;;;;;;;;;;;17.10;99.90;;;;;;5011339;28;20128;-64
2022/06/14 08:11:36;;;;;;;7.60;1.90;;;17.20;99.90;;;;;;5027177;28;19967;-65
2022/06/14 08:14:08;;;;;;;5.93;1.15;;;17.50;99.90;;;;;;5027085;28;20077;-65
2022/06/14 08:16:35;;;;;;;5.70;1.20;;;17.90;99.90;;;;;;5010498;28;20423;-65
2022/06/14 08:19:10;;;;;;;5.13;1.20;;;18.10;99.90;;;;;;5032460;28;20548;-65
2022/06/14 08:21:44;;;;;;;4.88;1.20;;;17.90;99.90;;;;;;5047910;28;20060;-64
2022/06/14 08:24:18;;;;;;;4.45;1.50;;;17.60;99.90;;;;;;5049379;28;20029;-64
2022/06/14 08:26:56;;;;;;;5.45;1.40;;;17.50;99.90;;;;;;5048929;28;20116;-64
2022/06/14 08:29:32;;;;;;;5.50;1.77;;;17.50;99.90;;;;;;5048087;28;20049;-64
2022/06/14 08:32:10;;;;;;;5.82;1.95;;;17.70;99.90;;;;;;5048423;28;20045;-64
2022/06/14 08:34:39;;;;;;;9.30;1.85;;;17.80;99.90;;;;;;5051937;28;20037;-64
2022/06/14 08:37:31;;;;;;;3.13;1.38;;;17.70;99.90;;;;;;5053110;28;20044;-64
2022/06/14 08:40:30;;;;;;;4.60;1.30;;;17.60;99.90;;;;;;5051646;28;20048;-65
2022/06/14 08:43:01;;;;;;;5.95;1.40;;;17.90;99.90;;;;;;5051848;28;20389;-64
2022/06/14 08:45:38;;;;;;;7.22;1.55;;;18.20;99.90;;;;;;5052006;28;20099;-65
2022/06/14 08:48:33;;;;;;;3.65;1.15;;;18.30;99.90;;;;;;5051483;28;20045;-65
2022/06/14 08:51:01;;;;;;;5.40;1.42;;;18.60;99.90;;;;;;5013754;28;20049;-64
2022/06/14 08:53:41;;;;;;;6.57;1.10;;;19.00;99.90;;;;;;5028132;28;20523;-65
2022/06/14 08:56:34;;;;;;;5.07;1.20;;;19.20;99.90;;;;;;5029846;28;20084;-64
2022/06/14 08:59:28;;;;;;;5.50;1.42;;;19.20;99.90;;;;;;5029956;28;20041;-65
2022/06/14 09:01:56;;;;;;;4.68;1.42;;;18.90;99.90;;;;;;5013141;28;20132;-64
2022/06/14 09:04:53;;;;;;;2.90;1.00;;;18.50;99.90;;;;;;5029772;28;20087;-64
2022/06/14 09:07:39;;;;;;;4.40;1.27;;;18.20;99.90;;;;;;5013358;28;20472;-64
2022/06/14 09:10:26;;;;;;;4.15;1.40;;;18.00;99.90;;;;;;5029704;28;20531;-64
2022/06/14 09:13:22;;;;;;;3.25;1.02;;;17.80;99.90;;;;;;5014567;28;20042;-65
2022/06/14 09:15:53;;;;;;;5.70;1.23;;;17.70;99.90;;;;;;5029770;28;20053;-64
2022/06/14 09:18:39;;;;;;;3.67;1.10;;;17.70;99.90;;;;;;5029826;28;20112;-66
2022/06/14 09:21:07;;;;;;;4.20;1.00;;;17.90;99.90;;;;;;5029589;28;20060;-65
2022/06/14 09:24:00;;;;;;;4.70;1.27;;;18.10;99.90;;;;;;5029417;28;20045;-63
2022/06/14 09:26:50;;;;;;;3.15;1.00;;;18.60;99.90;;;;;;5029248;28;20041;-65
2022/06/14 09:29:44;;;;;;;6.13;1.10;;;18.80;99.90;;;;;;5050614;28;20759;-65
2022/06/14 09:32:29;;;;;;;5.32;1.27;;;18.90;99.90;;;;;;5050631;28;20056;-64
2022/06/14 09:35:06;;;;;;;3.10;0.80;;;18.80;99.90;;;;;;5052097;28;20033;-64
2022/06/14 09:37:51;;;;;;;4.50;1.20;;;18.50;99.90;;;;;;5051998;28;20128;-64
2022/06/14 09:40:41;;;;;;;2.72;1.00;;;18.30;99.90;;;;;;5051923;28;20491;-65
2022/06/14 09:43:27;;;;;;;3.78;1.25;;;18.10;99.90;;;;;;5051904;28;20033;-63
2022/06/14 09:46:35;;;;;;;3.10;1.08;;;17.90;99.90;;;;;;5051357;28;20167;-65
2022/06/14 09:49:16;;;;;;;4.03;1.00;;;17.70;99.90;;;;;;5051745;28;20114;-64
2022/06/14 09:51:42;;;;;;;4.57;1.40;;;17.70;99.90;;;;;;5051603;28;20091;-64
2022/06/14 09:54:29;;;;;;;4.18;1.52;;;18.20;99.90;;;;;;5051631;28;20033;-65
2022/06/14 09:57:09;;;;;;;6.15;1.30;;;18.70;99.90;;;;;;5050592;28;20484;-65
2022/06/14 09:59:44;;;;;;;4.30;1.58;;;19.40;99.90;;;;;;5051577;28;20476;-64
2022/06/14 10:02:33;;;;;;;6.82;1.42;;;20.00;99.90;;;;;;5051366;28;20052;-64
2022/06/14 10:05:17;;;;;;;5.07;1.20;;;20.30;99.90;;;;;;5050126;28;20091;-64
2022/06/14 10:08:02;;;;;;;4.38;1.17;;;20.70;99.90;;;;;;5050944;28;20119;-64
2022/06/14 10:10:55;;;;;;;2.72;1.08;;;20.90;99.90;;;;;;5051169;28;20521;-64
2022/06/14 10:13:36;;;;;;;5.47;1.08;;;20.70;99.50;;;;;;5033187;28;20063;-64
2022/06/14 10:16:20;;;;;;;4.28;1.40;;;21.00;99.80;;;;;;5050132;28;20047;-65
2022/06/14 10:19:01;;;;;;;3.55;0.93;;;20.90;99.20;;;;;;5051223;28;21207;-65
2022/06/14 10:21:43;;;;;;;3.63;1.13;;;20.90;98.80;;;;;;5050066;28;20045;-64
2022/06/14 10:24:09;;;;;;;4.82;1.23;;;21.00;98.50;;;;;;5051173;28;20462;-65
2022/06/14 10:30:01;;;;;;;3.63;1.05;;;20.50;97.00;;;;;;5050863;28;20048;-65
2022/06/14 10:33:00;;;;;;;3.45;1.10;;;20.30;98.30;;;;;;5050922;28;20116;-64
2022/06/14 10:35:55;;;;;;;4.78;1.00;;;20.20;98.40;;;;;;5050870;28;20618;-65
2022/06/14 10:38:25;;;;;;;4.95;1.50;;;20.00;97.90;;;;;;5049973;28;20151;-65
2022/06/14 10:40:58;;;;;;;5.10;1.15;;;19.80;98.70;;;;;;5050715;28;20093;-65
2022/06/14 10:43:40;;;;;;;3.55;0.90;;;19.60;98.40;;;;;;5050654;28;20064;-64
2022/06/14 10:46:27;;;;;;;5.70;1.63;;;19.40;98.80;;;;;;5048741;28;20388;-65
2022/06/14 10:49:46;;;;;;;4.60;1.30;;;19.20;99.70;;;;;;5050167;28;20480;-64
2022/06/14 10:52:33;;;;;;;3.28;1.10;;;19.10;99.90;;;;;;5027991;28;20052;-66
2022/06/14 10:55:30;;;;;;;2.97;1.40;;;18.90;99.90;;;;;;5011236;28;20103;-65
2022/06/14 10:58:13;;;;;;;3.88;1.10;;;18.90;99.70;;;;;;5007336;28;20061;-65
2022/06/14 11:01:16;;;;;;;5.18;1.02;;;19.00;99.80;;;;;;4991736;28;20038;-67
2022/06/14 11:04:05;;;;;;;1.85;1.00;;;19.30;99.90;;;;;;4991330;28;20045;-64
2022/06/14 11:07:06;;;;;;;4.18;1.10;;;19.80;99.90;;;;;;5007677;28;20053;-65
2022/06/14 11:10:01;;;;;;;3.95;0.88;;;20.30;98.70;;;;;;5007714;28;20408;-65
2022/06/14 11:12:53;;;;;;;2.10;0.80;;;20.80;98.00;;;;;;5008007;28;20162;-65
2022/06/14 11:15:31;;;;;;;2.10;0.80;;;21.20;97.90;;;;;;5007368;28;20069;-64
2022/06/14 11:18:21;;;;;;;3.90;1.10;;;21.50;97.50;;;;;;5007923;28;20529;-65
2022/06/14 11:21:14;;;;;;;2.17;0.70;;;21.60;95.40;;;;;;5007986;28;20049;-64
2022/06/14 11:23:56;;;;;;;5.63;0.95;;;21.60;96.00;;;;;;5009223;28;20584;-65
2022/06/14 11:26:29;;;;;;;3.63;0.80;;;21.80;95.70;;;;;;5010977;28;20049;-65
2022/06/14 11:29:05;;;;;;;3.15;1.10;;;21.80;96.20;;;;;;5027654;28;20132;-63
2022/06/14 11:31:43;;;;;;;3.72;1.00;;;21.70;96.60;;;;;;5027667;28;20431;-65
2022/06/14 11:35:05;;;;;;;2.13;0.90;;;21.80;96.50;;;;;;5037182;28;20041;-64
2022/06/14 11:37:39;;;;;;;4.97;1.00;;;21.50;96.20;;;;;;5027481;28;20044;-65
2022/06/14 11:40:25;;;;;;;2.45;1.38;;;21.20;96.70;;;;;;5027309;28;20061;-65
2022/06/14 11:43:01;;;;;;;3.10;1.10;;;21.00;96.30;;;;;;5027471;28;20429;-65
2022/06/14 11:45:43;;;;;;;3.65;1.20;;;20.80;95.90;;;;;;5027313;28;20081;-65
2022/06/14 11:48:33;;;;;;;2.60;1.20;;;21.00;95.70;;;;;;5027314;28;20516;-65
2022/06/14 11:51:28;;;;;;;2.67;0.88;;;21.10;96.00;;;;;;5027420;28;20073;-64
2022/06/14 11:54:13;;;;;;;3.65;1.40;;;21.20;95.80;;;;;;5027474;28;20388;-63
2022/06/14 11:56:57;;;;;;;3.63;1.15;;;21.30;95.80;;;;;;5027418;28;20056;-66
2022/06/14 11:59:34;;;;;;;4.05;1.17;;;21.50;95.50;;;;;;5027007;28;20045;-65
2022/06/14 12:02:38;;;;;;;3.70;1.30;;;21.60;95.00;;;;;;5027418;28;20120;-63
2022/06/14 12:05:30;;;;;;;3.90;1.27;;;21.60;95.90;;;;;;5010809;28;20049;-65
2022/06/14 12:08:02;;;;;;;;;;;21.60;93.30;;;;;;4995523;28;20109;-65
2022/06/14 12:10:44;;;;;;;2.22;1.10;;;21.50;94.70;;;;;;5016000;28;19953;-64
2022/06/14 12:13:48;;;;;;;4.30;1.30;;;21.50;94.70;;;;;;5052156;28;20167;-65
2022/06/14 12:16:16;;;;;;;5.57;1.77;;;21.40;94.50;;;;;;5053411;28;20029;-64
2022/06/14 12:18:53;;;;;;;8.20;1.30;;;21.50;94.80;;;;;;5053305;28;20052;-65
2022/06/14 12:21:25;;;;;;;4.25;0.90;;;21.60;94.50;;;;;;5052114;28;20111;-64
2022/06/14 12:23:53;;;;;;;;;;;21.60;94.30;;;;;;5053871;28;20045;-66
2022/06/14 12:26:40;;;;;;;2.50;0.90;;;21.80;94.60;;;;;;5053147;28;19928;-64
2022/06/14 12:29:18;;;;;;;1.75;0.75;;;21.80;94.40;;;;;;5053323;28;20063;-64
2022/06/14 12:32:14;;;;;;;3.58;1.08;;;21.80;92.90;;;;;;5053191;28;20033;-66
2022/06/14 12:34:58;;;;;;;1.73;0.80;;;21.80;93.70;;;;;;5050455;28;20411;-64
2022/06/14 12:37:36;;;;;;;2.35;0.90;;;21.80;93.90;;;;;;5052474;28;20105;-65
2022/06/14 12:40:13;;;;;;;2.13;0.98;;;21.70;93.70;;;;;;5053034;28;20436;-66
2022/06/14 12:42:39;;;;;;;2.70;1.00;;;21.50;93.60;;;;;;5052279;28;20506;-65
2022/06/14 12:45:19;;;;;;;2.90;1.13;;;21.30;93.40;;;;;;5052605;28;20044;-64
2022/06/14 12:47:58;;;;;;;3.25;0.80;;;21.20;94.30;;;;;;5052741;28;20060;-65
2022/06/14 12:50:35;;;;;;;3.53;0.88;;;21.10;94.10;;;;;;5052870;28;20090;-64
2022/06/14 12:53:30;;;;;;;4.50;1.20;;;20.90;94.10;;;;;;5052149;28;20039;-64
2022/06/14 12:56:09;;;;;;;3.58;1.10;;;20.80;93.90;;;;;;5051563;28;20511;-65
2022/06/14 12:58:45;;;;;;;4.28;0.98;;;20.70;94.10;;;;;;5052783;28;20037;-64
2022/06/14 13:01:29;;;;;;;2.85;0.90;;;20.60;94.40;;;;;;5052664;28;20379;-63
2022/06/14 13:03:57;;;;;;;3.25;1.25;;;20.60;94.10;;;;;;5050985;28;20052;-64
2022/06/14 13:06:39;;;;;;;3.88;0.95;;;20.40;93.40;;;;;;5051802;28;20065;-65
2022/06/14 13:09:15;;;;;;;3.13;0.90;;;20.30;93.50;;;;;;5050977;28;20049;-65
2022/06/14 13:12:11;;;;;;;2.67;0.80;;;20.20;93.90;;;;;;5051219;28;20499;-65
2022/06/14 13:14:44;;;;;;;1.83;0.77;;;20.20;94.10;;;;;;5051278;28;20036;-65
2022/06/14 13:17:26;;;;;;;3.72;1.15;;;20.20;93.90;;;;;;5050826;28;20080;-65
2022/06/14 13:20:21;;;;;;;3.30;0.88;;;20.20;94.60;;;;;;5049842;28;20037;-64
2022/06/14 13:23:04;;;;;;;1.98;0.75;;;20.30;94.50;;;;;;5050486;28;20080;-64
2022/06/14 13:25:50;;;;;;;3.63;0.93;;;20.30;94.30;;;;;;5051339;28;20561;-64
2022/06/14 13:28:33;;;;;;;3.80;1.00;;;20.30;94.30;;;;;;5052134;28;20047;-63
2022/06/14 13:31:38;;;;;;;6.32;1.20;;;20.30;94.90;;;;;;5051945;28;20044;-64
2022/06/14 13:34:12;;;;;;;1.92;1.02;;;20.30;95.30;;;;;;5051857;28;20039;-64
2022/06/14 13:36:57;;;;;;;3.72;1.02;;;20.30;95.10;;;;;;5052085;28;20496;-65
2022/06/14 13:39:57;;;;;;;3.65;0.98;;;20.30;94.90;;;;;;5051720;28;20037;-64
2022/06/14 13:42:29;;;;;;;3.42;1.08;;;20.20;93.90;;;;;;5050583;28;20079;-65
2022/06/14 13:45:01;;;;;;;2.63;0.80;;;20.30;95.30;;;;;;5051818;28;20052;-64
2022/06/14 13:47:37;;;;;;;3.10;0.95;;;20.30;95.20;;;;;;5051703;28;20029;-64
2022/06/14 13:50:13;;;;;;;2.38;1.20;;;20.30;95.70;;;;;;5050483;28;20045;-65
2022/06/14 13:52:49;;;;;;;2.13;0.80;;;20.30;95.60;;;;;;5049109;28;20098;-65
2022/06/14 13:55:32;;;;;;;3.10;1.25;;;20.40;95.40;;;;;;5050459;28;20045;-64
2022/06/14 13:58:10;;;;;;;5.00;1.10;;;20.40;95.90;;;;;;5051663;28;20405;-65
2022/06/14 14:00:50;;;;;;;3.63;1.02;;;20.40;95.00;;;;;;5051875;28;20051;-65
2022/06/14 14:03:36;;;;;;;2.38;0.80;;;20.40;94.80;;;;;;5050151;28;20048;-65
2022/06/14 14:06:30;;;;;;;3.15;1.45;;;20.50;94.90;;;;;;5049856;28;20040;-64